Meath Environmental Platform

Observations

Time Sensor AQI SAQ Temp °C Hum % Pres Pa CO μg/m³ H₂S μg/m³ NO μg/m³ NO₂ μg/m³ O₃ μg/m³ SO₂ μg/m³ CO₂e PPM VOC PPM PM1 μg/m³ PM2.5 μg/m³ PM4 μg/m³ PM10 μg/m³ TPS µm
Tuesday 11 August 2026
16:31 Trim Patrick St 3 39.3 21 69,842 0 3.56 0 14.52 122.18 27.99 2 9.09 10
16:31 Trim Market St 3 42.9 16 67,406 0.1 0 0 15.13 85.37 8.63 0 3.92 4.32
16:30 Trim Patrick St 3 39.3 19 69,840 0 0 0 14.85 88.65 26.7 2.86 9.17 10.09
16:29 Trim Patrick St 3 39.3 21 69,838 0 0.85 0 14.43 169.85 28.93 2 8.24 9.07
16:29 Trim Market St 3 42.9 16 67,386 0 0 0 15.06 78.58 7.84 0 3.92 4.31
16:28 Trim Patrick St 3 39.3 20 69,836 0 0 0 14.71 129.05 25.64 2 8.32 9.15
16:27 Trim Patrick St 3 39.3 21 69,838 0 0 0 14.28 118.92 28.4 2 9.07 9.98
16:27 Trim Market St 3 42.8 16 67,369 0 0 0 18.66 74.13 6.32 0 3.36 3.7
16:26 Trim Patrick St 3 39.3 21 69,832 0 0 0 14.45 87.66 26.33 2 9.09 10
16:25 Trim Patrick St 3 39.3 21 69,860 0 0 0 13.78 80.83 26.44 2 8.26 9.09
16:24 Trim Patrick St 3 39.2 21 69,832 0 0 0 16.45 138.91 26.36 2 9.91 10.9
16:23 Trim Patrick St 3 39.2 21 69,824 0 0 0 14.55 80.58 25.92 2.86 9.09 10
16:22 Trim Patrick St 3 39.2 20 69,812 0 0 0 14.7 118.9 26.81 2 8.31 9.14
16:21 Trim Patrick St 3 39.1 20 69,766 0 0 0 18.26 157.19 25.18 2 8.29 9.12
16:20 Trim Patrick St 3 39.1 20 69,770 0 0 0 14.78 128.7 28.17 2 8.31 9.14
16:19 Trim Patrick St 3 39.1 20 69,774 0 0 0 13.82 80.24 26.13 2.86 9.12 10.03
16:19 Trim Market St 3 42.6 16 67,345 0 0 0 15.95 82.25 6.9 0.71 3.91 4.3
16:18 Trim Patrick St 3 39.1 21 69,782 0 0 0 14.46 114.9 27.17 2.86 9.09 10
16:17 Trim Patrick St 3 39.1 20 69,797 0 0 0 14.59 106.54 25.57 2.86 9.16 10.08
16:17 Trim Market St 3 42.5 16 67,339 0 0 0 29.01 44.72 3.85 0 3.35 3.68